windsock image

Welcome to Bigfield Strip.

anemometer image
     

 Help for dials.  
 
Local Met:

Wind:   
10 Min average:  
248 ° / 5.2 kts (3.5)
233° / 4.2

Temperature:  
16.3°C C
Dew Point:  
15.2°C C
QNH:  
Trend:  
1013.4 mb mb
-0.1mb/hr
BigField Strip. This image updates approximately every minute, it can have a two minute delay.  
 

Humidity:  
93 %
Sunrise:   04:19z
Sunset:   20:00z
Updated:  
  UTC
 
   More met info, trends, radar, history etc. available here   

LUTON Metar   EGGW 270620Z AUTO 21007KT 180V240 9999 OVC005 16/16 Q1014
 
  TAF   2016/07/27 06:15 TAF EGGW 270455Z 2706/2806 23010KT 9999 BKN007 TEMPO 2706/2711 7000 RA PROB30 TEMPO 2706/2709 4000 RADZ BKN004 BECMG 2711/2713 29009KT SCT025 PROB30 TEMPO 2713/2718 6000 SHRA
 
BENSON Metar   EGUB 270550Z 19007KT 6000 -RA BKN009 OVC014 16/16 Q1014 GRN TEMPO 3000 RADZ BKN006 YLO1
 
  TAF   2016/07/27 06:03 TAF EGUB 270446Z 2706/2715 23010KT 9999 BKN010 TEMPO 2706/2713 7000 -RADZ PROB30 TEMPO 2706/2709 3000 RADZ BKN006 BECMG 2711/2714 SCT025
 
Big Field view 1 icon   Big Field view 2 icon   Big Field view 3 icon   Chart AL3a in PDF icon   Chart AL3a in Word icon

WARNING:
This information is provided by the Airstrip unofficial weather station, DO NOT depend on the data provided here for any purpose.
This page is updated for latest Metars & TAF's every 5 minutes. Refresh the browser to check for the lastest.
Page designed for a minimum browser size of 1024x768.
© Copyright 2016 BigField Strip. This page auto generated 06:31 UTC - 27/07/2016   Contact Us
Valid HTML 4.01 Transitional     Windows uptime: 2 Days 3 Hours 59 Minutes 12 Seconds    WD started: 02:37 25/07/16    Free memory: 1522MB     Valid CSS!